パリ/シャルル・ド・ゴール の空港の天気 - METARとTAF

シャルル・ド・ゴール国際空港(パリ) ( LFPG / CDG ) - フランス Paris
飛行場実況気象(Metar)
観測時間06/24 11:30 CEST (06/24 09:30 UTC)
風向・風速東南東 3m/s
視程10km以上
天気現象
なし
気温28℃
湿度55%
気圧1016hPa
METARLFPG 240930Z 12006KT 090V160 CAVOK 28/18 Q1016 NOSIG
過去の天気等 Google飛行場航空写真 Wunderground天気予報

過去48時間のMETAR

飛行場予報(TAF)
発表時間: 6/24 07:00 CEST (6/24 05:00 UTC)
予報対象時間: 24日8時 CEST ~ 25日14時 CEST
風向・風速東南東 3m/s
視程10km以上
なし
TAF LFPG 240500Z 2406/2512 12005KT CAVOK TX33/2415Z TN22/2406Z